sensor_id;sensor_type;location;lat;lon;timestamp;P1;durP1;ratioP1;P2;durP2;ratioP2
26620;SDS011;14253;44.840;10.444;2022-11-15T00:02:37;54.95;;;26.95;;
26620;SDS011;14253;44.840;10.444;2022-11-15T00:05:21;56.05;;;28.73;;
26620;SDS011;14253;44.840;10.444;2022-11-15T00:08:06;60.00;;;29.35;;
26620;SDS011;14253;44.840;10.444;2022-11-15T00:10:54;54.35;;;26.90;;
26620;SDS011;14253;44.840;10.444;2022-11-15T00:13:39;64.90;;;29.55;;
26620;SDS011;14253;44.840;10.444;2022-11-15T00:16:24;55.97;;;28.42;;
26620;SDS011;14253;44.840;10.444;2022-11-15T00:19:09;61.42;;;27.38;;
26620;SDS011;14253;44.840;10.444;2022-11-15T00:21:53;64.15;;;28.98;;
26620;SDS011;14253;44.840;10.444;2022-11-15T00:24:38;61.63;;;29.30;;
26620;SDS011;14253;44.840;10.444;2022-11-15T00:27:23;57.03;;;28.10;;
26620;SDS011;14253;44.840;10.444;2022-11-15T00:30:08;54.00;;;26.52;;
26620;SDS011;14253;44.840;10.444;2022-11-15T00:32:52;53.80;;;26.50;;
26620;SDS011;14253;44.840;10.444;2022-11-15T00:35:37;50.45;;;26.10;;
26620;SDS011;14253;44.840;10.444;2022-11-15T00:38:21;50.47;;;26.88;;
26620;SDS011;14253;44.840;10.444;2022-11-15T00:41:06;46.58;;;23.42;;
26620;SDS011;14253;44.840;10.444;2022-11-15T00:43:51;56.90;;;24.90;;
26620;SDS011;14253;44.840;10.444;2022-11-15T00:46:36;53.22;;;24.40;;
26620;SDS011;14253;44.840;10.444;2022-11-15T00:49:20;50.60;;;25.10;;
26620;SDS011;14253;44.840;10.444;2022-11-15T00:52:05;52.28;;;24.27;;
26620;SDS011;14253;44.840;10.444;2022-11-15T00:54:50;45.42;;;24.27;;
26620;SDS011;14253;44.840;10.444;2022-11-15T00:57:34;48.97;;;25.20;;
26620;SDS011;14253;44.840;10.444;2022-11-15T01:00:19;44.03;;;22.67;;
26620;SDS011;14253;44.840;10.444;2022-11-15T01:03:03;53.53;;;24.02;;
26620;SDS011;14253;44.840;10.444;2022-11-15T01:05:48;51.90;;;25.55;;
26620;SDS011;14253;44.840;10.444;2022-11-15T01:08:33;46.45;;;23.33;;
26620;SDS011;14253;44.840;10.444;2022-11-15T01:11:17;44.78;;;22.38;;
26620;SDS011;14253;44.840;10.444;2022-11-15T01:14:02;43.20;;;23.60;;
26620;SDS011;14253;44.840;10.444;2022-11-15T01:16:47;41.50;;;21.00;;
26620;SDS011;14253;44.840;10.444;2022-11-15T01:19:31;53.40;;;23.23;;
26620;SDS011;14253;44.840;10.444;2022-11-15T01:22:16;43.80;;;22.45;;
26620;SDS011;14253;44.840;10.444;2022-11-15T01:25:01;45.03;;;22.10;;
26620;SDS011;14253;44.840;10.444;2022-11-15T01:27:46;48.15;;;23.73;;
26620;SDS011;14253;44.840;10.444;2022-11-15T01:30:31;42.97;;;22.48;;
26620;SDS011;14253;44.840;10.444;2022-11-15T01:33:15;47.20;;;24.33;;
26620;SDS011;14253;44.840;10.444;2022-11-15T01:36:03;48.33;;;22.42;;
26620;SDS011;14253;44.840;10.444;2022-11-15T01:38:55;45.40;;;22.27;;
26620;SDS011;14253;44.840;10.444;2022-11-15T01:41:40;43.25;;;21.98;;
26620;SDS011;14253;44.840;10.444;2022-11-15T01:44:31;45.03;;;21.13;;
26620;SDS011;14253;44.840;10.444;2022-11-15T01:47:24;44.28;;;21.95;;
26620;SDS011;14253;44.840;10.444;2022-11-15T01:50:19;44.10;;;21.95;;
26620;SDS011;14253;44.840;10.444;2022-11-15T01:53:11;47.70;;;23.33;;
26620;SDS011;14253;44.840;10.444;2022-11-15T01:55:56;43.50;;;21.65;;
26620;SDS011;14253;44.840;10.444;2022-11-15T01:58:42;43.10;;;21.20;;
26620;SDS011;14253;44.840;10.444;2022-11-15T02:01:29;39.35;;;20.73;;
26620;SDS011;14253;44.840;10.444;2022-11-15T02:04:16;41.75;;;22.33;;
26620;SDS011;14253;44.840;10.444;2022-11-15T02:07:12;39.35;;;20.42;;
26620;SDS011;14253;44.840;10.444;2022-11-15T02:10:00;41.97;;;19.67;;
26620;SDS011;14253;44.840;10.444;2022-11-15T02:12:50;41.92;;;20.42;;
26620;SDS011;14253;44.840;10.444;2022-11-15T02:15:38;39.95;;;20.33;;
26620;SDS011;14253;44.840;10.444;2022-11-15T02:18:41;46.15;;;20.85;;
26620;SDS011;14253;44.840;10.444;2022-11-15T02:21:52;39.63;;;20.70;;
26620;SDS011;14253;44.840;10.444;2022-11-15T02:30:53;42.60;;;21.13;;
26620;SDS011;14253;44.840;10.444;2022-11-15T02:36:35;40.83;;;19.98;;
26620;SDS011;14253;44.840;10.444;2022-11-15T02:39:42;37.88;;;20.88;;
26620;SDS011;14253;44.840;10.444;2022-11-15T02:42:30;40.08;;;20.52;;
26620;SDS011;14253;44.840;10.444;2022-11-15T02:46:24;39.60;;;19.95;;
26620;SDS011;14253;44.840;10.444;2022-11-15T02:48:48;37.20;;;20.20;;
26620;SDS011;14253;44.840;10.444;2022-11-15T02:51:33;38.78;;;20.13;;
26620;SDS011;14253;44.840;10.444;2022-11-15T02:54:22;45.17;;;20.42;;
26620;SDS011;14253;44.840;10.444;2022-11-15T02:57:12;42.43;;;19.97;;
26620;SDS011;14253;44.840;10.444;2022-11-15T03:00:07;41.25;;;20.38;;
26620;SDS011;14253;44.840;10.444;2022-11-15T03:05:44;47.30;;;20.27;;
26620;SDS011;14253;44.840;10.444;2022-11-15T03:11:53;46.95;;;20.17;;
26620;SDS011;14253;44.840;10.444;2022-11-15T03:15:17;41.88;;;19.80;;
26620;SDS011;14253;44.840;10.444;2022-11-15T03:18:11;48.25;;;21.90;;
26620;SDS011;14253;44.840;10.444;2022-11-15T03:23:51;41.38;;;19.85;;
26620;SDS011;14253;44.840;10.444;2022-11-15T03:26:38;37.22;;;19.70;;
26620;SDS011;14253;44.840;10.444;2022-11-15T03:29:27;40.15;;;20.50;;
26620;SDS011;14253;44.840;10.444;2022-11-15T03:32:20;39.55;;;20.17;;
26620;SDS011;14253;44.840;10.444;2022-11-15T03:35:18;40.72;;;22.05;;
26620;SDS011;14253;44.840;10.444;2022-11-15T03:38:09;40.08;;;20.23;;
26620;SDS011;14253;44.840;10.444;2022-11-15T03:41:12;39.05;;;20.20;;
26620;SDS011;14253;44.840;10.444;2022-11-15T03:44:10;40.78;;;19.65;;
26620;SDS011;14253;44.840;10.444;2022-11-15T03:47:02;41.25;;;19.67;;
26620;SDS011;14253;44.840;10.444;2022-11-15T03:49:52;38.20;;;19.90;;
26620;SDS011;14253;44.840;10.444;2022-11-15T03:52:40;35.67;;;18.27;;
26620;SDS011;14253;44.840;10.444;2022-11-15T03:55:26;35.97;;;18.23;;
26620;SDS011;14253;44.840;10.444;2022-11-15T03:58:11;37.28;;;18.42;;
26620;SDS011;14253;44.840;10.444;2022-11-15T04:00:55;35.13;;;17.25;;
26620;SDS011;14253;44.840;10.444;2022-11-15T04:03:40;39.67;;;18.92;;
26620;SDS011;14253;44.840;10.444;2022-11-15T04:06:25;36.13;;;18.80;;
26620;SDS011;14253;44.840;10.444;2022-11-15T04:09:09;36.70;;;19.77;;
26620;SDS011;14253;44.840;10.444;2022-11-15T04:11:54;39.22;;;17.92;;
26620;SDS011;14253;44.840;10.444;2022-11-15T04:14:38;34.53;;;17.80;;
26620;SDS011;14253;44.840;10.444;2022-11-15T04:17:44;35.08;;;17.35;;
26620;SDS011;14253;44.840;10.444;2022-11-15T04:20:30;36.08;;;17.90;;
26620;SDS011;14253;44.840;10.444;2022-11-15T04:23:33;29.25;;;16.30;;
26620;SDS011;14253;44.840;10.444;2022-11-15T04:26:36;33.72;;;16.85;;
26620;SDS011;14253;44.840;10.444;2022-11-15T04:29:21;38.05;;;17.77;;
26620;SDS011;14253;44.840;10.444;2022-11-15T04:32:20;37.67;;;17.45;;
26620;SDS011;14253;44.840;10.444;2022-11-15T04:35:05;32.50;;;16.98;;
26620;SDS011;14253;44.840;10.444;2022-11-15T04:37:50;31.80;;;16.83;;
26620;SDS011;14253;44.840;10.444;2022-11-15T04:40:44;37.05;;;18.20;;
26620;SDS011;14253;44.840;10.444;2022-11-15T04:44:05;29.38;;;16.52;;
26620;SDS011;14253;44.840;10.444;2022-11-15T04:47:20;34.78;;;17.33;;
26620;SDS011;14253;44.840;10.444;2022-11-15T04:50:47;36.55;;;18.70;;
26620;SDS011;14253;44.840;10.444;2022-11-15T04:54:09;34.75;;;16.98;;
26620;SDS011;14253;44.840;10.444;2022-11-15T04:57:41;32.00;;;16.50;;
26620;SDS011;14253;44.840;10.444;2022-11-15T05:01:19;36.72;;;17.67;;
26620;SDS011;14253;44.840;10.444;2022-11-15T05:04:50;33.08;;;17.85;;
26620;SDS011;14253;44.840;10.444;2022-11-15T05:08:11;36.55;;;18.38;;
26620;SDS011;14253;44.840;10.444;2022-11-15T05:11:32;34.97;;;17.88;;
26620;SDS011;14253;44.840;10.444;2022-11-15T05:14:49;33.50;;;17.70;;
26620;SDS011;14253;44.840;10.444;2022-11-15T05:18:06;34.72;;;18.73;;
26620;SDS011;14253;44.840;10.444;2022-11-15T05:21:26;36.60;;;18.02;;
26620;SDS011;14253;44.840;10.444;2022-11-15T05:24:45;33.17;;;18.13;;
26620;SDS011;14253;44.840;10.444;2022-11-15T05:28:00;37.47;;;18.00;;
26620;SDS011;14253;44.840;10.444;2022-11-15T05:31:17;36.33;;;18.05;;
26620;SDS011;14253;44.840;10.444;2022-11-15T05:34:39;38.75;;;18.08;;
26620;SDS011;14253;44.840;10.444;2022-11-15T05:37:51;39.58;;;19.05;;
26620;SDS011;14253;44.840;10.444;2022-11-15T05:40:38;39.58;;;18.83;;
26620;SDS011;14253;44.840;10.444;2022-11-15T05:43:37;35.47;;;18.70;;
26620;SDS011;14253;44.840;10.444;2022-11-15T05:46:24;32.72;;;17.60;;
26620;SDS011;14253;44.840;10.444;2022-11-15T05:49:10;35.63;;;17.02;;
26620;SDS011;14253;44.840;10.444;2022-11-15T05:51:57;37.17;;;17.13;;
26620;SDS011;14253;44.840;10.444;2022-11-15T05:54:42;32.50;;;16.17;;
26620;SDS011;14253;44.840;10.444;2022-11-15T05:57:27;34.13;;;17.45;;
26620;SDS011;14253;44.840;10.444;2022-11-15T06:00:12;33.30;;;16.63;;
26620;SDS011;14253;44.840;10.444;2022-11-15T06:02:57;35.00;;;17.45;;
26620;SDS011;14253;44.840;10.444;2022-11-15T06:05:42;26.77;;;17.52;;
26620;SDS011;14253;44.840;10.444;2022-11-15T06:08:27;30.05;;;17.40;;
26620;SDS011;14253;44.840;10.444;2022-11-15T06:11:15;31.50;;;16.90;;
26620;SDS011;14253;44.840;10.444;2022-11-15T06:14:07;31.35;;;16.67;;
26620;SDS011;14253;44.840;10.444;2022-11-15T06:16:53;36.97;;;18.98;;
26620;SDS011;14253;44.840;10.444;2022-11-15T06:19:37;34.10;;;17.45;;
26620;SDS011;14253;44.840;10.444;2022-11-15T06:22:22;35.08;;;18.48;;
26620;SDS011;14253;44.840;10.444;2022-11-15T06:25:07;36.00;;;18.20;;
26620;SDS011;14253;44.840;10.444;2022-11-15T06:27:52;35.95;;;18.63;;
26620;SDS011;14253;44.840;10.444;2022-11-15T06:30:39;35.17;;;18.88;;
26620;SDS011;14253;44.840;10.444;2022-11-15T06:33:23;32.33;;;18.60;;
26620;SDS011;14253;44.840;10.444;2022-11-15T06:36:10;37.47;;;17.77;;
26620;SDS011;14253;44.840;10.444;2022-11-15T06:39:00;32.42;;;17.75;;
26620;SDS011;14253;44.840;10.444;2022-11-15T06:41:49;32.60;;;16.88;;
26620;SDS011;14253;44.840;10.444;2022-11-15T06:45:13;33.53;;;18.38;;
26620;SDS011;14253;44.840;10.444;2022-11-15T06:48:13;34.75;;;16.90;;
26620;SDS011;14253;44.840;10.444;2022-11-15T06:50:59;30.63;;;16.45;;
26620;SDS011;14253;44.840;10.444;2022-11-15T06:53:45;32.80;;;16.98;;
26620;SDS011;14253;44.840;10.444;2022-11-15T06:56:30;31.13;;;16.67;;
26620;SDS011;14253;44.840;10.444;2022-11-15T06:59:15;34.65;;;17.88;;
26620;SDS011;14253;44.840;10.444;2022-11-15T07:01:59;31.80;;;17.80;;
26620;SDS011;14253;44.840;10.444;2022-11-15T07:04:44;34.47;;;17.95;;
26620;SDS011;14253;44.840;10.444;2022-11-15T07:07:29;33.67;;;17.75;;
26620;SDS011;14253;44.840;10.444;2022-11-15T07:10:13;33.55;;;17.48;;
26620;SDS011;14253;44.840;10.444;2022-11-15T07:12:59;30.70;;;15.98;;
26620;SDS011;14253;44.840;10.444;2022-11-15T07:15:44;32.17;;;16.23;;
26620;SDS011;14253;44.840;10.444;2022-11-15T07:18:28;30.65;;;16.45;;
26620;SDS011;14253;44.840;10.444;2022-11-15T07:21:13;34.65;;;18.73;;
26620;SDS011;14253;44.840;10.444;2022-11-15T07:23:58;33.50;;;19.23;;
26620;SDS011;14253;44.840;10.444;2022-11-15T07:26:43;35.90;;;19.20;;
26620;SDS011;14253;44.840;10.444;2022-11-15T07:29:27;35.42;;;20.45;;
26620;SDS011;14253;44.840;10.444;2022-11-15T07:32:12;35.63;;;19.13;;
26620;SDS011;14253;44.840;10.444;2022-11-15T07:34:57;35.08;;;19.33;;
26620;SDS011;14253;44.840;10.444;2022-11-15T07:37:43;33.05;;;17.88;;
26620;SDS011;14253;44.840;10.444;2022-11-15T07:40:28;36.05;;;19.00;;
26620;SDS011;14253;44.840;10.444;2022-11-15T07:43:13;31.25;;;18.42;;
26620;SDS011;14253;44.840;10.444;2022-11-15T07:45:58;32.55;;;18.27;;
26620;SDS011;14253;44.840;10.444;2022-11-15T07:48:43;32.40;;;19.75;;
26620;SDS011;14253;44.840;10.444;2022-11-15T07:51:27;32.35;;;18.75;;
26620;SDS011;14253;44.840;10.444;2022-11-15T07:54:12;31.92;;;17.20;;
26620;SDS011;14253;44.840;10.444;2022-11-15T07:56:57;33.53;;;16.40;;
26620;SDS011;14253;44.840;10.444;2022-11-15T07:59:42;27.13;;;15.20;;
26620;SDS011;14253;44.840;10.444;2022-11-15T08:02:26;31.58;;;16.13;;
26620;SDS011;14253;44.840;10.444;2022-11-15T08:05:11;29.30;;;16.30;;
26620;SDS011;14253;44.840;10.444;2022-11-15T08:07:56;32.75;;;17.85;;
26620;SDS011;14253;44.840;10.444;2022-11-15T08:10:41;32.47;;;17.20;;
26620;SDS011;14253;44.840;10.444;2022-11-15T08:13:25;32.55;;;17.50;;
26620;SDS011;14253;44.840;10.444;2022-11-15T08:16:10;35.30;;;18.15;;
26620;SDS011;14253;44.840;10.444;2022-11-15T08:18:55;28.38;;;18.05;;
26620;SDS011;14253;44.840;10.444;2022-11-15T08:21:40;34.30;;;17.67;;
26620;SDS011;14253;44.840;10.444;2022-11-15T08:24:25;30.35;;;16.95;;
26620;SDS011;14253;44.840;10.444;2022-11-15T08:27:09;27.20;;;16.85;;
26620;SDS011;14253;44.840;10.444;2022-11-15T08:29:58;36.53;;;17.95;;
26620;SDS011;14253;44.840;10.444;2022-11-15T08:32:42;30.70;;;17.23;;
26620;SDS011;14253;44.840;10.444;2022-11-15T08:35:38;32.80;;;17.33;;
26620;SDS011;14253;44.840;10.444;2022-11-15T08:38:27;32.13;;;18.75;;
26620;SDS011;14253;44.840;10.444;2022-11-15T08:41:24;33.30;;;17.50;;
26620;SDS011;14253;44.840;10.444;2022-11-15T08:44:36;32.00;;;17.70;;
26620;SDS011;14253;44.840;10.444;2022-11-15T08:47:22;32.70;;;19.17;;
26620;SDS011;14253;44.840;10.444;2022-11-15T08:50:07;32.75;;;18.45;;
26620;SDS011;14253;44.840;10.444;2022-11-15T08:52:52;33.13;;;20.10;;
26620;SDS011;14253;44.840;10.444;2022-11-15T08:55:37;45.20;;;23.40;;
26620;SDS011;14253;44.840;10.444;2022-11-15T08:58:22;37.70;;;22.65;;
26620;SDS011;14253;44.840;10.444;2022-11-15T09:01:18;46.00;;;23.23;;
26620;SDS011;14253;44.840;10.444;2022-11-15T09:04:04;34.97;;;20.17;;
26620;SDS011;14253;44.840;10.444;2022-11-15T09:06:49;39.30;;;23.73;;
26620;SDS011;14253;44.840;10.444;2022-11-15T09:09:33;43.05;;;22.42;;
26620;SDS011;14253;44.840;10.444;2022-11-15T09:12:18;44.63;;;23.67;;
26620;SDS011;14253;44.840;10.444;2022-11-15T09:15:03;43.05;;;23.05;;
26620;SDS011;14253;44.840;10.444;2022-11-15T09:17:49;39.30;;;21.40;;
26620;SDS011;14253;44.840;10.444;2022-11-15T09:20:33;43.08;;;23.30;;
26620;SDS011;14253;44.840;10.444;2022-11-15T09:23:18;39.92;;;22.00;;
26620;SDS011;14253;44.840;10.444;2022-11-15T09:26:03;40.08;;;22.83;;
26620;SDS011;14253;44.840;10.444;2022-11-15T09:28:48;43.13;;;23.20;;
26620;SDS011;14253;44.840;10.444;2022-11-15T09:31:32;43.13;;;23.95;;
26620;SDS011;14253;44.840;10.444;2022-11-15T09:34:17;43.08;;;21.30;;
26620;SDS011;14253;44.840;10.444;2022-11-15T09:37:02;39.50;;;20.75;;
26620;SDS011;14253;44.840;10.444;2022-11-15T09:39:46;38.90;;;21.45;;
26620;SDS011;14253;44.840;10.444;2022-11-15T09:52:07;39.20;;;20.55;;
26620;SDS011;14253;44.840;10.444;2022-11-15T09:54:41;40.53;;;21.70;;
26620;SDS011;14253;44.840;10.444;2022-11-15T09:57:12;45.45;;;23.70;;
26620;SDS011;14253;44.840;10.444;2022-11-15T10:05:22;43.22;;;23.33;;
26620;SDS011;14253;44.840;10.444;2022-11-15T10:11:14;47.83;;;24.08;;
26620;SDS011;14253;44.840;10.444;2022-11-15T10:13:45;46.45;;;23.92;;
26620;SDS011;14253;44.840;10.444;2022-11-15T10:21:34;47.67;;;25.75;;
26620;SDS011;14253;44.840;10.444;2022-11-15T10:24:26;48.08;;;24.95;;
26620;SDS011;14253;44.840;10.444;2022-11-15T10:26:57;45.75;;;24.70;;
26620;SDS011;14253;44.840;10.444;2022-11-15T10:29:23;42.80;;;22.73;;
26620;SDS011;14253;44.840;10.444;2022-11-15T10:31:50;48.58;;;25.20;;
26620;SDS011;14253;44.840;10.444;2022-11-15T10:34:17;46.13;;;23.90;;
26620;SDS011;14253;44.840;10.444;2022-11-15T10:36:56;43.60;;;23.23;;
26620;SDS011;14253;44.840;10.444;2022-11-15T10:39:24;44.53;;;23.38;;
26620;SDS011;14253;44.840;10.444;2022-11-15T10:41:50;43.45;;;22.98;;
26620;SDS011;14253;44.840;10.444;2022-11-15T10:46:45;39.22;;;22.70;;
26620;SDS011;14253;44.840;10.444;2022-11-15T10:49:16;48.42;;;24.58;;
26620;SDS011;14253;44.840;10.444;2022-11-15T10:51:45;45.00;;;25.20;;
26620;SDS011;14253;44.840;10.444;2022-11-15T10:54:22;40.40;;;23.75;;
26620;SDS011;14253;44.840;10.444;2022-11-15T10:56:51;47.22;;;24.92;;
26620;SDS011;14253;44.840;10.444;2022-11-15T10:59:30;45.72;;;24.60;;
26620;SDS011;14253;44.840;10.444;2022-11-15T11:02:00;48.28;;;26.13;;
26620;SDS011;14253;44.840;10.444;2022-11-15T11:04:26;51.17;;;25.38;;
26620;SDS011;14253;44.840;10.444;2022-11-15T11:06:53;48.50;;;25.30;;
26620;SDS011;14253;44.840;10.444;2022-11-15T11:09:28;47.50;;;25.63;;
26620;SDS011;14253;44.840;10.444;2022-11-15T11:11:58;42.55;;;23.05;;
26620;SDS011;14253;44.840;10.444;2022-11-15T11:14:28;48.33;;;24.95;;
26620;SDS011;14253;44.840;10.444;2022-11-15T11:33:19;52.28;;;27.70;;
26620;SDS011;14253;44.840;10.444;2022-11-15T11:41:15;49.45;;;26.40;;
26620;SDS011;14253;44.840;10.444;2022-11-15T11:46:55;54.38;;;28.85;;
26620;SDS011;14253;44.840;10.444;2022-11-15T11:52:25;59.42;;;29.80;;
26620;SDS011;14253;44.840;10.444;2022-11-15T11:55:03;56.78;;;30.38;;
26620;SDS011;14253;44.840;10.444;2022-11-15T12:00:19;56.55;;;28.10;;
26620;SDS011;14253;44.840;10.444;2022-11-15T12:05:30;53.85;;;28.88;;
26620;SDS011;14253;44.840;10.444;2022-11-15T12:08:09;51.70;;;28.98;;
26620;SDS011;14253;44.840;10.444;2022-11-15T12:10:41;59.58;;;30.60;;
26620;SDS011;14253;44.840;10.444;2022-11-15T12:13:19;57.28;;;29.65;;
26620;SDS011;14253;44.840;10.444;2022-11-15T12:15:52;56.25;;;30.58;;
26620;SDS011;14253;44.840;10.444;2022-11-15T12:18:26;56.42;;;30.00;;
26620;SDS011;14253;44.840;10.444;2022-11-15T12:21:00;71.80;;;30.65;;
26620;SDS011;14253;44.840;10.444;2022-11-15T12:23:43;54.10;;;29.50;;
26620;SDS011;14253;44.840;10.444;2022-11-15T12:26:18;59.45;;;30.75;;
26620;SDS011;14253;44.840;10.444;2022-11-15T12:28:56;59.53;;;30.02;;
26620;SDS011;14253;44.840;10.444;2022-11-15T12:34:01;54.65;;;30.10;;
26620;SDS011;14253;44.840;10.444;2022-11-15T12:36:38;57.33;;;29.88;;
26620;SDS011;14253;44.840;10.444;2022-11-15T12:41:38;60.13;;;30.67;;
26620;SDS011;14253;44.840;10.444;2022-11-15T12:44:10;62.25;;;33.13;;
26620;SDS011;14253;44.840;10.444;2022-11-15T12:49:10;50.42;;;28.23;;
26620;SDS011;14253;44.840;10.444;2022-11-15T13:02:24;51.08;;;26.67;;
26620;SDS011;14253;44.840;10.444;2022-11-15T13:17:49;49.65;;;25.45;;
26620;SDS011;14253;44.840;10.444;2022-11-15T13:27:53;47.65;;;26.30;;
26620;SDS011;14253;44.840;10.444;2022-11-15T13:30:26;46.85;;;25.60;;
26620;SDS011;14253;44.840;10.444;2022-11-15T13:32:54;50.38;;;26.90;;
26620;SDS011;14253;44.840;10.444;2022-11-15T13:35:22;56.42;;;28.98;;
26620;SDS011;14253;44.840;10.444;2022-11-15T13:37:50;49.85;;;28.33;;
26620;SDS011;14253;44.840;10.444;2022-11-15T13:40:23;46.65;;;25.45;;
26620;SDS011;14253;44.840;10.444;2022-11-15T13:42:58;43.35;;;23.63;;
26620;SDS011;14253;44.840;10.444;2022-11-15T13:45:24;46.78;;;24.77;;
26620;SDS011;14253;44.840;10.444;2022-11-15T13:47:55;47.58;;;26.23;;
26620;SDS011;14253;44.840;10.444;2022-11-15T13:50:30;49.85;;;27.10;;
26620;SDS011;14253;44.840;10.444;2022-11-15T13:53:00;48.33;;;25.48;;
26620;SDS011;14253;44.840;10.444;2022-11-15T13:55:29;48.92;;;25.60;;
26620;SDS011;14253;44.840;10.444;2022-11-15T13:57:58;48.30;;;26.10;;
26620;SDS011;14253;44.840;10.444;2022-11-15T14:00:41;48.53;;;24.90;;
26620;SDS011;14253;44.840;10.444;2022-11-15T14:03:20;44.83;;;25.23;;
26620;SDS011;14253;44.840;10.444;2022-11-15T14:08:59;43.88;;;24.42;;
26620;SDS011;14253;44.840;10.444;2022-11-15T14:11:29;48.58;;;24.65;;
26620;SDS011;14253;44.840;10.444;2022-11-15T14:16:35;48.00;;;25.65;;
26620;SDS011;14253;44.840;10.444;2022-11-15T14:19:09;46.67;;;25.45;;
26620;SDS011;14253;44.840;10.444;2022-11-15T14:24:36;47.35;;;25.30;;
26620;SDS011;14253;44.840;10.444;2022-11-15T14:30:06;46.63;;;23.85;;
26620;SDS011;14253;44.840;10.444;2022-11-15T14:32:49;44.22;;;24.13;;
26620;SDS011;14253;44.840;10.444;2022-11-15T14:35:17;45.05;;;24.77;;
26620;SDS011;14253;44.840;10.444;2022-11-15T14:37:47;45.20;;;24.93;;
26620;SDS011;14253;44.840;10.444;2022-11-15T14:40:15;44.92;;;23.88;;
26620;SDS011;14253;44.840;10.444;2022-11-15T14:42:47;43.45;;;24.40;;
26620;SDS011;14253;44.840;10.444;2022-11-15T14:45:15;46.35;;;26.35;;
26620;SDS011;14253;44.840;10.444;2022-11-15T14:47:43;42.88;;;22.40;;
26620;SDS011;14253;44.840;10.444;2022-11-15T14:50:13;44.22;;;25.40;;
26620;SDS011;14253;44.840;10.444;2022-11-15T14:52:42;51.15;;;26.30;;
26620;SDS011;14253;44.840;10.444;2022-11-15T14:55:14;49.30;;;27.20;;
26620;SDS011;14253;44.840;10.444;2022-11-15T14:57:56;50.72;;;25.02;;
26620;SDS011;14253;44.840;10.444;2022-11-15T15:00:22;44.13;;;23.90;;
26620;SDS011;14253;44.840;10.444;2022-11-15T15:02:48;48.97;;;24.98;;
26620;SDS011;14253;44.840;10.444;2022-11-15T15:05:18;47.50;;;25.90;;
26620;SDS011;14253;44.840;10.444;2022-11-15T15:07:50;44.40;;;24.10;;
26620;SDS011;14253;44.840;10.444;2022-11-15T15:10:19;48.38;;;26.42;;
26620;SDS011;14253;44.840;10.444;2022-11-15T15:12:46;52.05;;;27.83;;
26620;SDS011;14253;44.840;10.444;2022-11-15T15:15:13;48.60;;;26.35;;
26620;SDS011;14253;44.840;10.444;2022-11-15T15:17:41;46.78;;;25.17;;
26620;SDS011;14253;44.840;10.444;2022-11-15T15:20:07;51.03;;;25.80;;
26620;SDS011;14253;44.840;10.444;2022-11-15T15:22:33;44.95;;;25.27;;
26620;SDS011;14253;44.840;10.444;2022-11-15T15:24:59;43.58;;;23.63;;
26620;SDS011;14253;44.840;10.444;2022-11-15T15:27:25;41.03;;;23.33;;
26620;SDS011;14253;44.840;10.444;2022-11-15T15:29:51;45.80;;;23.63;;
26620;SDS011;14253;44.840;10.444;2022-11-15T15:32:17;39.90;;;23.58;;
26620;SDS011;14253;44.840;10.444;2022-11-15T15:34:43;39.97;;;22.42;;
26620;SDS011;14253;44.840;10.444;2022-11-15T15:37:22;40.03;;;22.73;;
26620;SDS011;14253;44.840;10.444;2022-11-15T15:39:53;52.17;;;23.27;;
26620;SDS011;14253;44.840;10.444;2022-11-15T15:42:20;43.67;;;24.33;;
26620;SDS011;14253;44.840;10.444;2022-11-15T15:44:47;44.72;;;24.25;;
26620;SDS011;14253;44.840;10.444;2022-11-15T15:47:15;42.42;;;23.40;;
26620;SDS011;14253;44.840;10.444;2022-11-15T15:49:46;47.75;;;25.65;;
26620;SDS011;14253;44.840;10.444;2022-11-15T15:52:12;48.33;;;26.98;;
26620;SDS011;14253;44.840;10.444;2022-11-15T15:54:39;42.33;;;24.20;;
26620;SDS011;14253;44.840;10.444;2022-11-15T15:57:05;42.08;;;23.42;;
26620;SDS011;14253;44.840;10.444;2022-11-15T15:59:34;41.28;;;23.10;;
26620;SDS011;14253;44.840;10.444;2022-11-15T16:02:00;38.65;;;22.02;;
26620;SDS011;14253;44.840;10.444;2022-11-15T16:04:25;42.20;;;23.98;;
26620;SDS011;14253;44.840;10.444;2022-11-15T16:06:57;38.38;;;22.63;;
26620;SDS011;14253;44.840;10.444;2022-11-15T16:09:26;45.13;;;23.85;;
26620;SDS011;14253;44.840;10.444;2022-11-15T16:12:11;38.85;;;21.38;;
26620;SDS011;14253;44.840;10.444;2022-11-15T16:14:37;38.95;;;21.85;;
26620;SDS011;14253;44.840;10.444;2022-11-15T16:17:03;39.13;;;21.55;;
26620;SDS011;14253;44.840;10.444;2022-11-15T16:19:29;42.00;;;22.30;;
26620;SDS011;14253;44.840;10.444;2022-11-15T16:21:55;37.08;;;20.75;;
26620;SDS011;14253;44.840;10.444;2022-11-15T16:24:21;42.03;;;22.00;;
26620;SDS011;14253;44.840;10.444;2022-11-15T16:26:48;38.72;;;22.00;;
26620;SDS011;14253;44.840;10.444;2022-11-15T16:29:16;40.92;;;23.13;;
26620;SDS011;14253;44.840;10.444;2022-11-15T16:31:42;42.88;;;23.13;;
26620;SDS011;14253;44.840;10.444;2022-11-15T16:34:08;36.85;;;20.58;;
26620;SDS011;14253;44.840;10.444;2022-11-15T16:36:34;44.22;;;23.23;;
26620;SDS011;14253;44.840;10.444;2022-11-15T16:39:00;41.53;;;24.15;;
26620;SDS011;14253;44.840;10.444;2022-11-15T16:41:29;36.67;;;21.77;;
26620;SDS011;14253;44.840;10.444;2022-11-15T16:43:55;38.60;;;22.55;;
26620;SDS011;14253;44.840;10.444;2022-11-15T16:46:33;34.90;;;19.73;;
26620;SDS011;14253;44.840;10.444;2022-11-15T16:48:59;41.00;;;22.95;;
26620;SDS011;14253;44.840;10.444;2022-11-15T16:51:26;44.22;;;23.30;;
26620;SDS011;14253;44.840;10.444;2022-11-15T16:53:52;37.90;;;21.60;;
26620;SDS011;14253;44.840;10.444;2022-11-15T16:56:20;41.75;;;22.83;;
26620;SDS011;14253;44.840;10.444;2022-11-15T16:58:52;48.05;;;24.90;;
26620;SDS011;14253;44.840;10.444;2022-11-15T17:01:23;41.08;;;21.83;;
26620;SDS011;14253;44.840;10.444;2022-11-15T17:03:51;41.17;;;24.40;;
26620;SDS011;14253;44.840;10.444;2022-11-15T17:06:18;42.97;;;21.90;;
26620;SDS011;14253;44.840;10.444;2022-11-15T17:08:44;37.90;;;22.05;;
26620;SDS011;14253;44.840;10.444;2022-11-15T17:11:12;37.67;;;20.88;;
26620;SDS011;14253;44.840;10.444;2022-11-15T17:13:41;41.22;;;22.35;;
26620;SDS011;14253;44.840;10.444;2022-11-15T17:16:11;39.20;;;22.05;;
26620;SDS011;14253;44.840;10.444;2022-11-15T17:18:39;40.95;;;22.00;;
26620;SDS011;14253;44.840;10.444;2022-11-15T17:21:16;34.40;;;19.98;;
26620;SDS011;14253;44.840;10.444;2022-11-15T17:23:43;36.00;;;21.77;;
26620;SDS011;14253;44.840;10.444;2022-11-15T17:26:10;35.47;;;21.50;;
26620;SDS011;14253;44.840;10.444;2022-11-15T17:28:38;37.08;;;20.00;;
26620;SDS011;14253;44.840;10.444;2022-11-15T17:31:06;38.28;;;23.35;;
26620;SDS011;14253;44.840;10.444;2022-11-15T17:33:34;39.08;;;23.50;;
26620;SDS011;14253;44.840;10.444;2022-11-15T17:36:01;37.67;;;22.10;;
26620;SDS011;14253;44.840;10.444;2022-11-15T17:38:29;37.00;;;22.08;;
26620;SDS011;14253;44.840;10.444;2022-11-15T17:41:14;36.30;;;21.55;;
26620;SDS011;14253;44.840;10.444;2022-11-15T17:43:40;36.63;;;23.70;;